Dubbo Cooreena Rd, New South Wales

6:19 PM AEST on October 01, 2014 (GMT +1000)
Dubbo | Change Station
CLOSE
Current Station
Airport
Location: Dubbo Cooreena Rd,
Elevation: 902 ft
Nearby Weather Stations

Elev 902 ft 32.22 °S, 148.57 °E | Updated 19 minutes ago

Clear
Clear
59 °F
Feels Like 59 °F
N
12
Wind Variable Wind from SSW

Today
High -- | Low -- °F
--% Chance of Precip.
Yesterday
High -- | Low -- °F
Precip. -- in
5:44 AM 6:07 PM
Waxing Crescent, 45% visible
Pressure 30.15 in
Visibility 6.2 miles
Clouds
Dew Point 27 °F
Humidity 29%
Rainfall 0.00 in
Snow Depth Not available.
UV Not available.
Pollen Not available.
Air Quality Not available.
Flu Activity Not available.
METAR YSDU 010800Z AUTO 21010KT 9999 // NCD 15/M03 Q1021

More Conditions Fewer Conditions

Pressure 30.15 in
Visibility 6.2 miles
Clouds
Dew Point 27 °F
Humidity 29%
Rainfall 0.00 in
Snow Depth Not available.
UV Not available.
Pollen Not available.
Air Quality Not available.
Flu Activity Not available.
METAR YSDU 010800Z AUTO 21010KT 9999 // NCD 15/M03 Q1021

More Conditions Fewer Conditions

10-Day Weather Forecast

Almanac

Astronomy

Oct. 01, 2014 Rise Set
Actual Time 5:44 AM AEST 6:07 PM AEST
Civil Twilight 5:19 AM AEST 6:32 PM AEST
Nautical Twilight 4:50 AM AEST 7:00 PM AEST
Astronomical Twilight 4:21 AM AEST 7:30 PM AEST
Moon 10:29 AM AEST No Moon Set
Length of Visible Light 13h 12m
Length of Day
12h 23m
Tomorrow will be 1m 59s longer.
Waxing Crescent, 45% of the Moon is Illuminated
Today
Waxing Crescent
Oct 1
First Quarter
Oct 8
Full
Oct 15
Last Quarter
Oct 23
New

Yesterday's Extremes

Country Highs Country Lows

Community

WunderPhotos

Upload Photos

1,757,902 photos uploaded!

Nearby

Snow Depth

Not available.

Earthquake Activity

City Distance Mag. Time & Date
No recent earthquake activity has been reported nearby.
Minimum magnitude displayed is 2.5.

Coastal Water Temperatures

Place Temperature
No Stations Reporting

Nearby Weather Stations